sensor_id;sensor_type;location;lat;lon;timestamp;temperature;humidity
51661;DHT22;37741;49.748;8.490;2023-02-01T00:02:18;4.90;91.80
51661;DHT22;37741;49.748;8.490;2023-02-01T00:04:43;4.90;91.70
51661;DHT22;37741;49.748;8.490;2023-02-01T00:07:09;4.90;91.80
51661;DHT22;37741;49.748;8.490;2023-02-01T00:09:35;4.90;92.00
51661;DHT22;37741;49.748;8.490;2023-02-01T00:12:00;4.90;92.00
51661;DHT22;37741;49.748;8.490;2023-02-01T00:14:28;4.90;92.00
51661;DHT22;37741;49.748;8.490;2023-02-01T00:16:54;4.90;92.10
51661;DHT22;37741;49.748;8.490;2023-02-01T00:19:19;4.90;92.20
51661;DHT22;37741;49.748;8.490;2023-02-01T00:21:45;4.90;92.30
51661;DHT22;37741;49.748;8.490;2023-02-01T00:24:11;4.90;92.20
51661;DHT22;37741;49.748;8.490;2023-02-01T00:26:42;4.90;92.10
51661;DHT22;37741;49.748;8.490;2023-02-01T00:29:12;4.90;91.70
51661;DHT22;37741;49.748;8.490;2023-02-01T00:31:38;5.00;92.00
51661;DHT22;37741;49.748;8.490;2023-02-01T00:34:04;4.90;91.80
51661;DHT22;37741;49.748;8.490;2023-02-01T00:36:30;5.00;91.90
51661;DHT22;37741;49.748;8.490;2023-02-01T00:38:55;4.90;91.90
51661;DHT22;37741;49.748;8.490;2023-02-01T00:41:21;4.90;91.70
51661;DHT22;37741;49.748;8.490;2023-02-01T00:43:49;4.90;91.80
51661;DHT22;37741;49.748;8.490;2023-02-01T00:46:16;5.00;91.90
51661;DHT22;37741;49.748;8.490;2023-02-01T00:48:42;4.90;92.00
51661;DHT22;37741;49.748;8.490;2023-02-01T00:51:20;4.90;91.90
51661;DHT22;37741;49.748;8.490;2023-02-01T00:53:46;5.00;92.10
51661;DHT22;37741;49.748;8.490;2023-02-01T00:56:12;4.90;92.10
51661;DHT22;37741;49.748;8.490;2023-02-01T00:58:38;4.90;91.90
51661;DHT22;37741;49.748;8.490;2023-02-01T01:01:09;4.90;91.90
51661;DHT22;37741;49.748;8.490;2023-02-01T01:03:38;5.00;92.00
51661;DHT22;37741;49.748;8.490;2023-02-01T01:06:06;5.00;92.00
51661;DHT22;37741;49.748;8.490;2023-02-01T01:08:33;5.00;92.20
51661;DHT22;37741;49.748;8.490;2023-02-01T01:10:59;5.00;91.70
51661;DHT22;37741;49.748;8.490;2023-02-01T01:13:28;5.00;92.20
51661;DHT22;37741;49.748;8.490;2023-02-01T01:15:54;5.00;91.80
51661;DHT22;37741;49.748;8.490;2023-02-01T01:18:20;5.00;92.10
51661;DHT22;37741;49.748;8.490;2023-02-01T01:20:45;5.00;92.00
51661;DHT22;37741;49.748;8.490;2023-02-01T01:23:12;5.00;91.80
51661;DHT22;37741;49.748;8.490;2023-02-01T01:25:39;5.00;91.90
51661;DHT22;37741;49.748;8.490;2023-02-01T01:28:05;5.00;91.90
51661;DHT22;37741;49.748;8.490;2023-02-01T01:30:34;5.00;91.90
51661;DHT22;37741;49.748;8.490;2023-02-01T01:33:00;5.00;92.00
51661;DHT22;37741;49.748;8.490;2023-02-01T01:35:26;5.00;91.90
51661;DHT22;37741;49.748;8.490;2023-02-01T01:37:51;5.00;92.10
51661;DHT22;37741;49.748;8.490;2023-02-01T01:40:17;5.00;92.30
51661;DHT22;37741;49.748;8.490;2023-02-01T01:42:43;5.00;92.10
51661;DHT22;37741;49.748;8.490;2023-02-01T01:47:52;5.00;92.20
51661;DHT22;37741;49.748;8.490;2023-02-01T01:50:28;5.00;92.40
51661;DHT22;37741;49.748;8.490;2023-02-01T01:52:56;5.00;91.90
51661;DHT22;37741;49.748;8.490;2023-02-01T01:55:24;5.00;92.30
51661;DHT22;37741;49.748;8.490;2023-02-01T01:58:00;5.00;92.20
51661;DHT22;37741;49.748;8.490;2023-02-01T02:00:27;5.00;92.00
51661;DHT22;37741;49.748;8.490;2023-02-01T02:02:58;5.00;91.80
51661;DHT22;37741;49.748;8.490;2023-02-01T02:05:24;5.00;92.00
51661;DHT22;37741;49.748;8.490;2023-02-01T02:07:52;5.00;92.30
51661;DHT22;37741;49.748;8.490;2023-02-01T02:10:18;5.00;92.30
51661;DHT22;37741;49.748;8.490;2023-02-01T02:12:46;5.00;92.00
51661;DHT22;37741;49.748;8.490;2023-02-01T02:15:14;5.00;91.90
51661;DHT22;37741;49.748;8.490;2023-02-01T02:18:05;5.00;92.00
51661;DHT22;37741;49.748;8.490;2023-02-01T02:26:20;5.00;91.80
51661;DHT22;37741;49.748;8.490;2023-02-01T02:29:13;5.00;92.10
51661;DHT22;37741;49.748;8.490;2023-02-01T02:35:11;5.00;92.10
51661;DHT22;37741;49.748;8.490;2023-02-01T02:37:36;5.00;91.80
51661;DHT22;37741;49.748;8.490;2023-02-01T02:40:18;5.00;91.90
51661;DHT22;37741;49.748;8.490;2023-02-01T02:43:10;5.00;91.90
51661;DHT22;37741;49.748;8.490;2023-02-01T02:46:14;5.00;92.00
51661;DHT22;37741;49.748;8.490;2023-02-01T02:49:19;5.00;91.90
51661;DHT22;37741;49.748;8.490;2023-02-01T02:51:55;5.00;92.20
51661;DHT22;37741;49.748;8.490;2023-02-01T02:54:46;5.00;92.00
51661;DHT22;37741;49.748;8.490;2023-02-01T02:57:18;5.00;92.10
51661;DHT22;37741;49.748;8.490;2023-02-01T03:00:07;5.00;92.10
51661;DHT22;37741;49.748;8.490;2023-02-01T03:02:52;5.00;91.90
51661;DHT22;37741;49.748;8.490;2023-02-01T03:05:43;5.00;91.90
51661;DHT22;37741;49.748;8.490;2023-02-01T03:10:57;5.00;91.90
51661;DHT22;37741;49.748;8.490;2023-02-01T03:16:07;5.00;91.90
51661;DHT22;37741;49.748;8.490;2023-02-01T03:18:46;5.00;92.00
51661;DHT22;37741;49.748;8.490;2023-02-01T03:21:18;5.00;92.10
51661;DHT22;37741;49.748;8.490;2023-02-01T03:23:46;5.00;92.40
51661;DHT22;37741;49.748;8.490;2023-02-01T03:26:15;5.00;91.90
51661;DHT22;37741;49.748;8.490;2023-02-01T03:28:47;5.00;92.50
51661;DHT22;37741;49.748;8.490;2023-02-01T03:31:13;5.00;92.30
51661;DHT22;37741;49.748;8.490;2023-02-01T03:33:39;5.00;92.20
51661;DHT22;37741;49.748;8.490;2023-02-01T03:36:15;5.00;91.90
51661;DHT22;37741;49.748;8.490;2023-02-01T03:39:02;5.00;92.20
51661;DHT22;37741;49.748;8.490;2023-02-01T03:41:53;5.00;92.20
51661;DHT22;37741;49.748;8.490;2023-02-01T03:44:27;5.00;92.60
51661;DHT22;37741;49.748;8.490;2023-02-01T03:47:11;5.00;92.40
51661;DHT22;37741;49.748;8.490;2023-02-01T03:50:00;5.00;92.50
51661;DHT22;37741;49.748;8.490;2023-02-01T03:52:41;5.00;92.50
51661;DHT22;37741;49.748;8.490;2023-02-01T03:55:09;5.10;92.40
51661;DHT22;37741;49.748;8.490;2023-02-01T03:57:50;5.10;92.70
51661;DHT22;37741;49.748;8.490;2023-02-01T04:00:22;5.10;92.70
51661;DHT22;37741;49.748;8.490;2023-02-01T04:02:48;5.00;92.40
51661;DHT22;37741;49.748;8.490;2023-02-01T04:05:14;5.10;92.80
51661;DHT22;37741;49.748;8.490;2023-02-01T04:07:40;5.00;92.50
51661;DHT22;37741;49.748;8.490;2023-02-01T04:10:06;5.10;92.80
51661;DHT22;37741;49.748;8.490;2023-02-01T04:12:32;5.10;93.00
51661;DHT22;37741;49.748;8.490;2023-02-01T04:14:57;5.00;93.10
51661;DHT22;37741;49.748;8.490;2023-02-01T04:17:23;5.10;92.40
51661;DHT22;37741;49.748;8.490;2023-02-01T04:19:49;5.10;92.90
51661;DHT22;37741;49.748;8.490;2023-02-01T04:22:15;5.10;92.50
51661;DHT22;37741;49.748;8.490;2023-02-01T04:24:40;5.00;92.50
51661;DHT22;37741;49.748;8.490;2023-02-01T04:27:06;5.10;92.80
51661;DHT22;37741;49.748;8.490;2023-02-01T04:29:31;5.00;92.50
51661;DHT22;37741;49.748;8.490;2023-02-01T04:31:57;5.10;92.40
51661;DHT22;37741;49.748;8.490;2023-02-01T04:34:23;5.00;92.30
51661;DHT22;37741;49.748;8.490;2023-02-01T04:36:50;5.00;92.10
51661;DHT22;37741;49.748;8.490;2023-02-01T04:39:16;5.10;92.00
51661;DHT22;37741;49.748;8.490;2023-02-01T04:41:41;5.10;92.30
51661;DHT22;37741;49.748;8.490;2023-02-01T04:44:13;5.10;91.90
51661;DHT22;37741;49.748;8.490;2023-02-01T04:46:39;5.00;92.00
51661;DHT22;37741;49.748;8.490;2023-02-01T04:49:04;5.00;91.90
51661;DHT22;37741;49.748;8.490;2023-02-01T04:51:31;5.10;91.80
51661;DHT22;37741;49.748;8.490;2023-02-01T04:53:57;5.00;91.80
51661;DHT22;37741;49.748;8.490;2023-02-01T04:56:23;5.00;91.70
51661;DHT22;37741;49.748;8.490;2023-02-01T04:58:48;5.00;91.70
51661;DHT22;37741;49.748;8.490;2023-02-01T05:01:14;5.10;91.90
51661;DHT22;37741;49.748;8.490;2023-02-01T05:03:40;5.10;91.80
51661;DHT22;37741;49.748;8.490;2023-02-01T05:06:05;5.10;92.00
51661;DHT22;37741;49.748;8.490;2023-02-01T05:08:34;5.10;92.30
51661;DHT22;37741;49.748;8.490;2023-02-01T05:11:00;5.10;91.90
51661;DHT22;37741;49.748;8.490;2023-02-01T05:13:28;5.10;91.80
51661;DHT22;37741;49.748;8.490;2023-02-01T05:16:12;5.10;91.60
51661;DHT22;37741;49.748;8.490;2023-02-01T05:18:38;5.10;91.60
51661;DHT22;37741;49.748;8.490;2023-02-01T05:21:03;5.10;91.90
51661;DHT22;37741;49.748;8.490;2023-02-01T05:23:29;5.00;91.90
51661;DHT22;37741;49.748;8.490;2023-02-01T05:25:59;5.10;91.70
51661;DHT22;37741;49.748;8.490;2023-02-01T05:28:26;5.10;91.70
51661;DHT22;37741;49.748;8.490;2023-02-01T05:30:51;5.10;91.70
51661;DHT22;37741;49.748;8.490;2023-02-01T05:33:17;5.00;91.70
51661;DHT22;37741;49.748;8.490;2023-02-01T05:35:43;5.10;91.60
51661;DHT22;37741;49.748;8.490;2023-02-01T05:38:08;5.10;91.60
51661;DHT22;37741;49.748;8.490;2023-02-01T05:40:34;5.10;91.70
51661;DHT22;37741;49.748;8.490;2023-02-01T05:42:59;5.00;91.60
51661;DHT22;37741;49.748;8.490;2023-02-01T05:45:25;5.10;91.60
51661;DHT22;37741;49.748;8.490;2023-02-01T05:47:50;5.00;91.60
51661;DHT22;37741;49.748;8.490;2023-02-01T05:50:16;5.10;91.60
51661;DHT22;37741;49.748;8.490;2023-02-01T05:52:42;5.10;91.50
51661;DHT22;37741;49.748;8.490;2023-02-01T05:55:08;5.10;91.40
51661;DHT22;37741;49.748;8.490;2023-02-01T05:57:33;5.10;91.40
51661;DHT22;37741;49.748;8.490;2023-02-01T05:59:59;5.00;91.40
51661;DHT22;37741;49.748;8.490;2023-02-01T06:02:24;5.10;91.40
51661;DHT22;37741;49.748;8.490;2023-02-01T06:04:51;5.00;91.30
51661;DHT22;37741;49.748;8.490;2023-02-01T06:07:16;5.00;91.30
51661;DHT22;37741;49.748;8.490;2023-02-01T06:09:42;5.00;91.30
51661;DHT22;37741;49.748;8.490;2023-02-01T06:12:08;5.10;91.30
51661;DHT22;37741;49.748;8.490;2023-02-01T06:14:33;5.00;91.30
51661;DHT22;37741;49.748;8.490;2023-02-01T06:16:59;5.00;91.20
51661;DHT22;37741;49.748;8.490;2023-02-01T06:19:25;5.00;91.20
51661;DHT22;37741;49.748;8.490;2023-02-01T06:21:51;5.00;91.20
51661;DHT22;37741;49.748;8.490;2023-02-01T06:24:17;5.00;91.20
51661;DHT22;37741;49.748;8.490;2023-02-01T06:26:42;5.00;91.10
51661;DHT22;37741;49.748;8.490;2023-02-01T06:29:12;5.00;91.10
51661;DHT22;37741;49.748;8.490;2023-02-01T06:31:38;5.00;91.10
51661;DHT22;37741;49.748;8.490;2023-02-01T06:34:04;5.00;91.10
51661;DHT22;37741;49.748;8.490;2023-02-01T06:36:29;5.00;91.10
51661;DHT22;37741;49.748;8.490;2023-02-01T06:38:56;5.00;91.10
51661;DHT22;37741;49.748;8.490;2023-02-01T06:41:25;5.00;91.10
51661;DHT22;37741;49.748;8.490;2023-02-01T06:43:51;5.00;91.10
51661;DHT22;37741;49.748;8.490;2023-02-01T06:46:17;5.00;91.20
51661;DHT22;37741;49.748;8.490;2023-02-01T06:48:42;5.00;91.20
51661;DHT22;37741;49.748;8.490;2023-02-01T06:51:34;5.00;91.20
51661;DHT22;37741;49.748;8.490;2023-02-01T06:54:00;5.00;91.20
51661;DHT22;37741;49.748;8.490;2023-02-01T06:56:26;5.00;91.30
51661;DHT22;37741;49.748;8.490;2023-02-01T06:58:53;5.00;91.50
51661;DHT22;37741;49.748;8.490;2023-02-01T07:01:19;5.00;91.20
51661;DHT22;37741;49.748;8.490;2023-02-01T07:03:51;5.00;91.20
51661;DHT22;37741;49.748;8.490;2023-02-01T07:06:17;5.00;91.30
51661;DHT22;37741;49.748;8.490;2023-02-01T07:08:44;5.00;91.20
51661;DHT22;37741;49.748;8.490;2023-02-01T07:11:11;5.00;91.20
51661;DHT22;37741;49.748;8.490;2023-02-01T07:13:38;5.00;91.20
51661;DHT22;37741;49.748;8.490;2023-02-01T07:16:06;5.00;91.10
51661;DHT22;37741;49.748;8.490;2023-02-01T07:18:32;5.00;91.10
51661;DHT22;37741;49.748;8.490;2023-02-01T07:20:59;5.00;91.10
51661;DHT22;37741;49.748;8.490;2023-02-01T07:23:25;5.00;91.10
51661;DHT22;37741;49.748;8.490;2023-02-01T07:25:58;5.00;91.10
51661;DHT22;37741;49.748;8.490;2023-02-01T07:28:25;5.00;91.10
51661;DHT22;37741;49.748;8.490;2023-02-01T07:30:51;5.00;91.10
51661;DHT22;37741;49.748;8.490;2023-02-01T07:33:21;5.00;91.10
51661;DHT22;37741;49.748;8.490;2023-02-01T07:35:48;5.00;91.10
51661;DHT22;37741;49.748;8.490;2023-02-01T07:38:14;5.00;91.10
51661;DHT22;37741;49.748;8.490;2023-02-01T07:40:41;5.00;91.10
51661;DHT22;37741;49.748;8.490;2023-02-01T07:43:07;5.00;91.10
51661;DHT22;37741;49.748;8.490;2023-02-01T07:45:36;4.90;91.00
51661;DHT22;37741;49.748;8.490;2023-02-01T07:48:02;5.00;91.10
51661;DHT22;37741;49.748;8.490;2023-02-01T07:50:28;5.00;91.10
51661;DHT22;37741;49.748;8.490;2023-02-01T07:52:54;4.90;91.00
51661;DHT22;37741;49.748;8.490;2023-02-01T07:55:20;4.90;91.00
51661;DHT22;37741;49.748;8.490;2023-02-01T07:57:46;4.90;91.00
51661;DHT22;37741;49.748;8.490;2023-02-01T08:00:12;4.90;91.00
51661;DHT22;37741;49.748;8.490;2023-02-01T08:03:00;4.90;91.00
51661;DHT22;37741;49.748;8.490;2023-02-01T08:05:26;4.90;91.00
51661;DHT22;37741;49.748;8.490;2023-02-01T08:07:52;4.90;91.00
51661;DHT22;37741;49.748;8.490;2023-02-01T08:10:19;4.90;91.00
51661;DHT22;37741;49.748;8.490;2023-02-01T08:12:45;4.90;91.00
51661;DHT22;37741;49.748;8.490;2023-02-01T08:15:16;4.90;91.00
51661;DHT22;37741;49.748;8.490;2023-02-01T08:17:50;4.90;91.00
51661;DHT22;37741;49.748;8.490;2023-02-01T08:20:17;4.90;91.00
51661;DHT22;37741;49.748;8.490;2023-02-01T08:22:43;4.80;91.00
51661;DHT22;37741;49.748;8.490;2023-02-01T08:25:08;4.80;91.00
51661;DHT22;37741;49.748;8.490;2023-02-01T08:27:34;4.80;91.00
51661;DHT22;37741;49.748;8.490;2023-02-01T08:30:00;4.90;91.00
51661;DHT22;37741;49.748;8.490;2023-02-01T08:32:26;4.80;91.00
51661;DHT22;37741;49.748;8.490;2023-02-01T08:34:52;4.80;91.10
51661;DHT22;37741;49.748;8.490;2023-02-01T08:37:18;4.80;91.10
51661;DHT22;37741;49.748;8.490;2023-02-01T08:39:44;4.80;91.10
51661;DHT22;37741;49.748;8.490;2023-02-01T08:42:10;4.80;91.10
51661;DHT22;37741;49.748;8.490;2023-02-01T08:44:55;4.80;91.10
51661;DHT22;37741;49.748;8.490;2023-02-01T08:47:21;4.80;91.10
51661;DHT22;37741;49.748;8.490;2023-02-01T08:49:47;4.80;91.10
51661;DHT22;37741;49.748;8.490;2023-02-01T08:52:13;4.80;91.10
51661;DHT22;37741;49.748;8.490;2023-02-01T08:54:38;4.80;91.10
51661;DHT22;37741;49.748;8.490;2023-02-01T08:57:06;4.80;91.20
51661;DHT22;37741;49.748;8.490;2023-02-01T08:59:32;4.80;91.10
51661;DHT22;37741;49.748;8.490;2023-02-01T09:01:58;4.80;91.20
51661;DHT22;37741;49.748;8.490;2023-02-01T09:04:23;4.80;91.20
51661;DHT22;37741;49.748;8.490;2023-02-01T09:06:49;4.80;91.20
51661;DHT22;37741;49.748;8.490;2023-02-01T09:09:14;4.80;91.20
51661;DHT22;37741;49.748;8.490;2023-02-01T09:11:40;4.80;91.20
51661;DHT22;37741;49.748;8.490;2023-02-01T09:14:06;4.90;91.30
51661;DHT22;37741;49.748;8.490;2023-02-01T09:16:31;4.90;91.30
51661;DHT22;37741;49.748;8.490;2023-02-01T09:18:57;4.80;91.40
51661;DHT22;37741;49.748;8.490;2023-02-01T09:21:23;4.80;91.30
51661;DHT22;37741;49.748;8.490;2023-02-01T09:23:50;4.90;91.40
51661;DHT22;37741;49.748;8.490;2023-02-01T09:26:16;4.90;91.40
51661;DHT22;37741;49.748;8.490;2023-02-01T09:28:42;4.80;91.30
51661;DHT22;37741;49.748;8.490;2023-02-01T09:31:07;4.80;91.30
51661;DHT22;37741;49.748;8.490;2023-02-01T09:33:33;4.90;91.30
51661;DHT22;37741;49.748;8.490;2023-02-01T09:36:01;4.90;91.30
51661;DHT22;37741;49.748;8.490;2023-02-01T09:38:27;4.90;91.40
51661;DHT22;37741;49.748;8.490;2023-02-01T09:40:54;4.90;91.30
51661;DHT22;37741;49.748;8.490;2023-02-01T09:48:33;4.90;91.30
51661;DHT22;37741;49.748;8.490;2023-02-01T09:51:00;4.90;91.30
51661;DHT22;37741;49.748;8.490;2023-02-01T09:53:40;4.90;91.20
51661;DHT22;37741;49.748;8.490;2023-02-01T09:56:13;4.90;91.20
51661;DHT22;37741;49.748;8.490;2023-02-01T09:58:44;4.90;91.20
51661;DHT22;37741;49.748;8.490;2023-02-01T10:01:28;4.90;91.10
51661;DHT22;37741;49.748;8.490;2023-02-01T10:04:24;5.00;91.10
51661;DHT22;37741;49.748;8.490;2023-02-01T10:09:52;5.00;91.00
51661;DHT22;37741;49.748;8.490;2023-02-01T10:18:33;5.00;90.80
51661;DHT22;37741;49.748;8.490;2023-02-01T10:21:17;5.00;90.70
51661;DHT22;37741;49.748;8.490;2023-02-01T10:26:24;5.00;90.60
51661;DHT22;37741;49.748;8.490;2023-02-01T10:29:03;5.10;90.60
51661;DHT22;37741;49.748;8.490;2023-02-01T10:31:31;5.10;90.60
51661;DHT22;37741;49.748;8.490;2023-02-01T10:34:01;5.10;90.50
51661;DHT22;37741;49.748;8.490;2023-02-01T10:36:40;5.10;90.40
51661;DHT22;37741;49.748;8.490;2023-02-01T10:39:08;5.10;90.30
51661;DHT22;37741;49.748;8.490;2023-02-01T10:41:36;5.10;90.30
51661;DHT22;37741;49.748;8.490;2023-02-01T10:44:10;5.20;90.20
51661;DHT22;37741;49.748;8.490;2023-02-01T10:46:37;5.20;90.10
51661;DHT22;37741;49.748;8.490;2023-02-01T10:49:04;5.20;90.40
51661;DHT22;37741;49.748;8.490;2023-02-01T10:51:43;5.20;90.10
51661;DHT22;37741;49.748;8.490;2023-02-01T10:54:16;5.20;90.10
51661;DHT22;37741;49.748;8.490;2023-02-01T10:56:44;5.20;90.30
51661;DHT22;37741;49.748;8.490;2023-02-01T10:59:18;5.30;90.00
51661;DHT22;37741;49.748;8.490;2023-02-01T11:01:47;5.30;90.00
51661;DHT22;37741;49.748;8.490;2023-02-01T11:04:20;5.30;90.00
51661;DHT22;37741;49.748;8.490;2023-02-01T11:06:49;5.30;89.70
51661;DHT22;37741;49.748;8.490;2023-02-01T11:09:19;5.30;89.70
51661;DHT22;37741;49.748;8.490;2023-02-01T11:14:18;5.30;89.50
51661;DHT22;37741;49.748;8.490;2023-02-01T11:16:57;5.30;89.50
51661;DHT22;37741;49.748;8.490;2023-02-01T11:19:23;5.30;89.30
51661;DHT22;37741;49.748;8.490;2023-02-01T11:21:53;5.40;89.40
51661;DHT22;37741;49.748;8.490;2023-02-01T11:24:25;5.40;89.30
51661;DHT22;37741;49.748;8.490;2023-02-01T11:26:58;5.40;89.20
51661;DHT22;37741;49.748;8.490;2023-02-01T11:29:25;5.40;88.90
51661;DHT22;37741;49.748;8.490;2023-02-01T11:31:57;5.40;89.00
51661;DHT22;37741;49.748;8.490;2023-02-01T11:34:26;5.40;88.70
51661;DHT22;37741;49.748;8.490;2023-02-01T11:36:58;5.40;89.00
51661;DHT22;37741;49.748;8.490;2023-02-01T11:39:29;5.40;88.80
51661;DHT22;37741;49.748;8.490;2023-02-01T11:42:15;5.40;88.70
51661;DHT22;37741;49.748;8.490;2023-02-01T11:44:43;5.40;88.40
51661;DHT22;37741;49.748;8.490;2023-02-01T11:47:29;5.40;88.40
51661;DHT22;37741;49.748;8.490;2023-02-01T11:49:59;5.40;88.50
51661;DHT22;37741;49.748;8.490;2023-02-01T11:53:02;5.50;88.30
51661;DHT22;37741;49.748;8.490;2023-02-01T12:09:28;5.50;88.20
51661;DHT22;37741;49.748;8.490;2023-02-01T12:15:03;5.60;88.60
51661;DHT22;37741;49.748;8.490;2023-02-01T12:17:41;5.50;88.50
51661;DHT22;37741;49.748;8.490;2023-02-01T12:28:38;5.60;88.50
51661;DHT22;37741;49.748;8.490;2023-02-01T12:31:32;5.60;88.30
51661;DHT22;37741;49.748;8.490;2023-02-01T12:37:09;5.60;87.90
51661;DHT22;37741;49.748;8.490;2023-02-01T12:39:42;5.60;87.90
51661;DHT22;37741;49.748;8.490;2023-02-01T12:42:22;5.60;87.50
51661;DHT22;37741;49.748;8.490;2023-02-01T12:45:20;5.60;87.80
51661;DHT22;37741;49.748;8.490;2023-02-01T12:48:21;5.70;87.50
51661;DHT22;37741;49.748;8.490;2023-02-01T12:50:53;5.70;87.70
51661;DHT22;37741;49.748;8.490;2023-02-01T12:54:02;5.70;87.40
51661;DHT22;37741;49.748;8.490;2023-02-01T12:56:41;5.70;87.00
51661;DHT22;37741;49.748;8.490;2023-02-01T12:59:28;5.70;87.30
51661;DHT22;37741;49.748;8.490;2023-02-01T13:01:56;5.70;87.40
51661;DHT22;37741;49.748;8.490;2023-02-01T13:04:37;5.70;87.30
51661;DHT22;37741;49.748;8.490;2023-02-01T13:07:12;5.70;87.50
51661;DHT22;37741;49.748;8.490;2023-02-01T13:17:38;5.80;87.20
51661;DHT22;37741;49.748;8.490;2023-02-01T13:20:34;5.80;87.30
51661;DHT22;37741;49.748;8.490;2023-02-01T13:23:47;5.80;87.00
51661;DHT22;37741;49.748;8.490;2023-02-01T13:25:50;5.80;86.90
51661;DHT22;37741;49.748;8.490;2023-02-01T13:34:04;5.80;86.90
51661;DHT22;37741;49.748;8.490;2023-02-01T13:36:53;5.80;86.70
51661;DHT22;37741;49.748;8.490;2023-02-01T13:42:33;5.80;86.40
51661;DHT22;37741;49.748;8.490;2023-02-01T13:45:12;5.80;85.70
51661;DHT22;37741;49.748;8.490;2023-02-01T13:47:41;5.80;86.10
51661;DHT22;37741;49.748;8.490;2023-02-01T13:52:44;5.80;86.30
51661;DHT22;37741;49.748;8.490;2023-02-01T13:57:40;5.90;86.00
51661;DHT22;37741;49.748;8.490;2023-02-01T14:03:18;5.90;86.10
51661;DHT22;37741;49.748;8.490;2023-02-01T14:08:37;5.90;86.30
51661;DHT22;37741;49.748;8.490;2023-02-01T14:11:04;5.90;86.60
51661;DHT22;37741;49.748;8.490;2023-02-01T14:13:38;5.90;86.40
51661;DHT22;37741;49.748;8.490;2023-02-01T14:26:49;5.90;86.30
51661;DHT22;37741;49.748;8.490;2023-02-01T14:36:54;6.00;86.10
51661;DHT22;37741;49.748;8.490;2023-02-01T14:39:46;6.00;86.20
51661;DHT22;37741;49.748;8.490;2023-02-01T14:42:43;6.00;86.40
51661;DHT22;37741;49.748;8.490;2023-02-01T15:00:55;6.00;85.60
51661;DHT22;37741;49.748;8.490;2023-02-01T15:03:45;6.00;86.00
51661;DHT22;37741;49.748;8.490;2023-02-01T15:14:44;6.00;85.10
51661;DHT22;37741;49.748;8.490;2023-02-01T15:19:55;6.10;85.80
51661;DHT22;37741;49.748;8.490;2023-02-01T15:22:21;6.10;85.60
51661;DHT22;37741;49.748;8.490;2023-02-01T15:25:00;6.10;85.60
51661;DHT22;37741;49.748;8.490;2023-02-01T15:27:27;6.10;85.70
51661;DHT22;37741;49.748;8.490;2023-02-01T15:29:53;6.10;85.30
51661;DHT22;37741;49.748;8.490;2023-02-01T15:32:34;6.10;85.50
51661;DHT22;37741;49.748;8.490;2023-02-01T15:35:00;6.20;85.30
51661;DHT22;37741;49.748;8.490;2023-02-01T15:37:27;6.20;85.20
51661;DHT22;37741;49.748;8.490;2023-02-01T15:42:53;6.20;85.10
51661;DHT22;37741;49.748;8.490;2023-02-01T15:45:23;6.20;85.20
51661;DHT22;37741;49.748;8.490;2023-02-01T15:47:51;6.20;85.30
51661;DHT22;37741;49.748;8.490;2023-02-01T15:50:21;6.20;85.10
51661;DHT22;37741;49.748;8.490;2023-02-01T15:52:50;6.20;85.10
51661;DHT22;37741;49.748;8.490;2023-02-01T15:55:36;6.20;85.00
51661;DHT22;37741;49.748;8.490;2023-02-01T16:00:53;6.20;84.90
51661;DHT22;37741;49.748;8.490;2023-02-01T16:06:10;6.20;84.80
51661;DHT22;37741;49.748;8.490;2023-02-01T16:08:38;6.20;84.80
51661;DHT22;37741;49.748;8.490;2023-02-01T16:11:30;6.20;84.80
51661;DHT22;37741;49.748;8.490;2023-02-01T16:13:58;6.20;84.70
51661;DHT22;37741;49.748;8.490;2023-02-01T16:16:25;6.20;85.10
51661;DHT22;37741;49.748;8.490;2023-02-01T16:18:51;6.20;85.00
51661;DHT22;37741;49.748;8.490;2023-02-01T16:21:17;6.20;84.90
51661;DHT22;37741;49.748;8.490;2023-02-01T16:23:42;6.30;84.90
51661;DHT22;37741;49.748;8.490;2023-02-01T16:26:08;6.20;84.60
51661;DHT22;37741;49.748;8.490;2023-02-01T16:28:36;6.30;85.20
51661;DHT22;37741;49.748;8.490;2023-02-01T16:31:02;6.30;85.00
51661;DHT22;37741;49.748;8.490;2023-02-01T16:33:28;6.20;84.90
51661;DHT22;37741;49.748;8.490;2023-02-01T16:35:56;6.30;84.50
51661;DHT22;37741;49.748;8.490;2023-02-01T16:38:25;6.30;84.90
51661;DHT22;37741;49.748;8.490;2023-02-01T16:40:51;6.20;84.80
51661;DHT22;37741;49.748;8.490;2023-02-01T16:43:22;6.30;84.70
51661;DHT22;37741;49.748;8.490;2023-02-01T16:45:49;6.20;84.60
51661;DHT22;37741;49.748;8.490;2023-02-01T16:48:25;6.30;84.60
51661;DHT22;37741;49.748;8.490;2023-02-01T16:50:55;6.20;84.60
51661;DHT22;37741;49.748;8.490;2023-02-01T16:53:22;6.30;84.80
51661;DHT22;37741;49.748;8.490;2023-02-01T16:55:48;6.20;84.60
51661;DHT22;37741;49.748;8.490;2023-02-01T16:58:16;6.20;84.70
51661;DHT22;37741;49.748;8.490;2023-02-01T17:00:42;6.30;84.30
51661;DHT22;37741;49.748;8.490;2023-02-01T17:03:10;6.20;84.90
51661;DHT22;37741;49.748;8.490;2023-02-01T17:05:36;6.20;84.50
51661;DHT22;37741;49.748;8.490;2023-02-01T17:08:06;6.20;84.80
51661;DHT22;37741;49.748;8.490;2023-02-01T17:10:32;6.20;85.00
51661;DHT22;37741;49.748;8.490;2023-02-01T17:12:57;6.20;84.90
51661;DHT22;37741;49.748;8.490;2023-02-01T17:15:32;6.20;84.60
51661;DHT22;37741;49.748;8.490;2023-02-01T17:18:00;6.30;85.20
51661;DHT22;37741;49.748;8.490;2023-02-01T17:20:29;6.20;84.90
51661;DHT22;37741;49.748;8.490;2023-02-01T17:22:57;6.20;84.70
51661;DHT22;37741;49.748;8.490;2023-02-01T17:25:23;6.20;85.10
51661;DHT22;37741;49.748;8.490;2023-02-01T17:27:50;6.20;85.10
51661;DHT22;37741;49.748;8.490;2023-02-01T17:30:16;6.20;85.00
51661;DHT22;37741;49.748;8.490;2023-02-01T17:32:42;6.20;85.30
51661;DHT22;37741;49.748;8.490;2023-02-01T17:35:22;6.20;85.40
51661;DHT22;37741;49.748;8.490;2023-02-01T17:37:48;6.20;85.40
51661;DHT22;37741;49.748;8.490;2023-02-01T17:40:15;6.20;85.60
51661;DHT22;37741;49.748;8.490;2023-02-01T17:42:41;6.20;85.20
51661;DHT22;37741;49.748;8.490;2023-02-01T17:45:37;6.20;85.20
51661;DHT22;37741;49.748;8.490;2023-02-01T17:48:06;6.20;85.60
51661;DHT22;37741;49.748;8.490;2023-02-01T17:50:35;6.20;85.60
51661;DHT22;37741;49.748;8.490;2023-02-01T17:53:02;6.10;85.50
51661;DHT22;37741;49.748;8.490;2023-02-01T17:55:32;6.10;85.40
51661;DHT22;37741;49.748;8.490;2023-02-01T17:57:59;6.20;85.40
51661;DHT22;37741;49.748;8.490;2023-02-01T18:00:24;6.10;85.00
51661;DHT22;37741;49.748;8.490;2023-02-01T18:02:50;6.10;85.10
51661;DHT22;37741;49.748;8.490;2023-02-01T18:07:47;6.10;85.20
51661;DHT22;37741;49.748;8.490;2023-02-01T18:10:13;6.10;85.30
51661;DHT22;37741;49.748;8.490;2023-02-01T18:12:39;6.10;85.40
51661;DHT22;37741;49.748;8.490;2023-02-01T18:15:19;6.10;84.90
51661;DHT22;37741;49.748;8.490;2023-02-01T18:17:44;6.10;84.90
51661;DHT22;37741;49.748;8.490;2023-02-01T18:20:18;6.10;85.20
51661;DHT22;37741;49.748;8.490;2023-02-01T18:22:45;6.10;85.00
51661;DHT22;37741;49.748;8.490;2023-02-01T18:25:22;6.10;85.00
51661;DHT22;37741;49.748;8.490;2023-02-01T18:27:49;6.10;85.20
51661;DHT22;37741;49.748;8.490;2023-02-01T18:30:18;6.00;84.80
51661;DHT22;37741;49.748;8.490;2023-02-01T18:32:47;6.00;85.10
51661;DHT22;37741;49.748;8.490;2023-02-01T18:35:22;6.00;85.40